Time;durP1;ratioP1;P1;durP2;ratioP2;P2;SDS_P1;SDS_P2;PMS_P1;PMS_P2;Temp;Humidity;BMP_temperature;BMP_pressure;BME280_temperature;BME280_humidity;BME280_pressure;Samples;Min_cycle;Max_cycle;Signal;HPM_P1;HPM_P2
2023/10/29 00:00:37;;;;;;;22.50;13.83;;;;;;;8.72;89.50;99502.97;5050325;28;20607;-62
2023/10/29 00:03:06;;;;;;;18.17;12.83;;;;;;;8.67;88.47;99505.63;5049752;28;20206;-59
2023/10/29 00:05:34;;;;;;;19.13;14.60;;;;;;;8.61;88.76;99515.94;5053363;28;20211;-60
2023/10/29 00:08:02;;;;;;;20.37;13.83;;;;;;;8.58;89.41;99520.28;5046474;28;20275;-59
2023/10/29 00:10:32;;;;;;;20.53;13.87;;;;;;;8.57;89.95;99519.44;5049500;28;20323;-61
2023/10/29 00:13:00;;;;;;;19.43;14.00;;;;;;;8.60;90.04;99519.41;5050944;28;20212;-58
2023/10/29 00:15:28;;;;;;;21.53;13.27;;;;;;;8.62;90.17;99516.81;5057533;28;20229;-61
2023/10/29 00:17:56;;;;;;;17.30;13.20;;;;;;;8.65;89.91;99512.50;5054987;28;20609;-61
2023/10/29 00:20:24;;;;;;;18.17;13.13;;;;;;;8.69;90.22;99513.31;5050918;28;20546;-73
2023/10/29 00:22:52;;;;;;;16.93;13.07;;;;;;;8.70;90.21;99510.72;5051021;28;20202;-71
2023/10/29 00:25:21;;;;;;;15.40;12.30;;;;;;;8.74;90.34;99505.53;5047818;28;20256;-73
2023/10/29 00:27:51;;;;;;;20.17;13.93;;;;;;;8.76;90.13;99514.06;5049789;28;20237;-75
2023/10/29 00:30:19;;;;;;;23.37;14.43;;;;;;;8.70;89.84;99505.59;5049630;28;20198;-73
2023/10/29 00:32:47;;;;;;;24.53;14.97;;;;;;;8.73;90.28;99508.97;5051588;28;20230;-62
2023/10/29 00:35:15;;;;;;;20.33;14.20;;;;;;;8.73;90.05;99498.69;5053192;28;20649;-61
2023/10/29 00:37:43;;;;;;;19.97;13.70;;;;;;;8.63;89.26;99498.81;5051604;28;20758;-61
2023/10/29 00:40:12;;;;;;;20.60;14.33;;;;;;;8.59;90.29;99502.31;5051744;28;20213;-61
2023/10/29 00:42:40;;;;;;;21.20;14.40;;;;;;;8.56;90.20;99493.78;5048043;28;20535;-62
2023/10/29 00:45:10;;;;;;;23.60;14.97;;;;;;;8.55;90.40;99495.50;5047402;28;20328;-61
2023/10/29 00:47:38;;;;;;;20.83;14.10;;;;;;;8.58;91.04;99502.28;5046230;28;20260;-65
2023/10/29 00:50:08;;;;;;;22.87;14.47;;;;;;;8.57;90.87;99495.47;5049364;28;20198;-66
2023/10/29 00:52:36;;;;;;;20.93;14.73;;;;;;;8.56;90.57;99507.47;5049804;28;20216;-63
2023/10/29 00:55:05;;;;;;;20.87;15.00;;;;;;;8.61;90.59;99502.25;5049022;28;20288;-62
2023/10/29 00:57:32;;;;;;;20.60;15.03;;;;;;;8.57;91.03;99501.44;5049687;28;20198;-61
2023/10/29 01:00:01;;;;;;;21.97;15.07;;;;;;;8.54;90.38;99508.34;5044137;28;20289;-62
2023/10/29 01:02:31;;;;;;;23.93;15.13;;;;;;;8.57;91.11;99514.28;5047839;28;20277;-65
2023/10/29 01:04:59;;;;;;;21.83;14.40;;;;;;;8.57;91.11;99516.84;5049215;28;20209;-62
2023/10/29 01:07:27;;;;;;;21.83;14.67;;;;;;;8.59;91.12;99524.56;5046697;28;20206;-61
2023/10/29 01:09:55;;;;;;;21.83;15.10;;;;;;;8.57;90.84;99514.28;5049584;28;20205;-60
2023/10/29 01:12:26;;;;;;;25.70;15.73;;;;;;;8.60;91.05;99514.25;5056249;28;20653;-61
2023/10/29 01:14:54;;;;;;;22.33;15.30;;;;;;;8.66;91.89;99518.47;5051583;28;20291;-65
2023/10/29 01:17:23;;;;;;;21.63;15.37;;;;;;;8.66;91.19;99513.34;5051037;28;20246;-61
2023/10/29 01:19:53;;;;;;;22.00;15.63;;;;;;;8.62;90.46;99522.81;5042102;28;20237;-62
2023/10/29 01:22:20;;;;;;;21.33;15.80;;;;;;;8.62;91.92;99524.53;5047109;28;20221;-61
2023/10/29 01:24:48;;;;;;;23.03;14.83;;;;;;;8.63;90.95;99521.94;5047900;28;20240;-63
2023/10/29 01:27:16;;;;;;;25.97;16.90;;;;;;;8.61;90.79;99526.22;5050384;28;20316;-61
2023/10/29 01:29:44;;;;;;;23.17;16.10;;;;;;;8.57;91.55;99524.56;5051718;28;20205;-64
2023/10/29 01:32:15;;;;;;;20.37;14.90;;;;;;;8.59;92.06;99524.56;5051391;28;20204;-61
2023/10/29 01:34:43;;;;;;;22.97;15.33;;;;;;;8.62;92.00;99525.38;5050077;28;20317;-60
2023/10/29 01:37:12;;;;;;;23.00;15.03;;;;;;;8.67;92.03;99520.19;5048313;28;20584;-62
2023/10/29 01:39:40;;;;;;;23.87;15.83;;;;;;;8.73;91.88;99508.97;5046595;28;20275;-63
2023/10/29 01:42:08;;;;;;;23.30;14.90;;;;;;;8.76;91.75;99514.06;5052710;28;20712;-73
2023/10/29 01:44:36;;;;;;;21.60;15.10;;;;;;;8.77;91.86;99518.34;5049847;28;20287;-72
2023/10/29 01:47:05;;;;;;;25.43;15.33;;;;;;;8.73;91.60;99514.97;5048174;28;20650;-75
2023/10/29 01:49:33;;;;;;;22.33;14.37;;;;;;;8.67;91.73;99518.44;5045444;28;20224;-73
2023/10/29 01:52:01;;;;;;;23.73;16.23;;;;;;;8.65;91.81;99519.34;5052254;28;20247;-71
2023/10/29 01:54:31;;;;;;;24.50;15.17;;;;;;;8.70;91.44;99525.28;5051738;28;20194;-69
2023/10/29 01:56:58;;;;;;;23.27;16.23;;;;;;;8.71;91.87;99530.38;5053421;28;20205;-72
2023/10/29 01:59:26;;;;;;;25.87;16.80;;;;;;;8.70;91.93;99531.25;5048845;28;20289;-73
2023/10/29 02:01:55;;;;;;;22.70;15.27;;;;;;;8.70;92.04;99522.72;5051081;28;20672;-61
2023/10/29 02:04:26;;;;;;;22.43;14.73;;;;;;;8.74;92.11;99531.22;5048591;28;20597;-61
2023/10/29 02:06:54;;;;;;;22.17;15.30;;;;;;;8.73;91.38;99537.22;5048578;28;20205;-66
2023/10/29 02:09:23;;;;;;;23.73;14.93;;;;;;;8.74;91.64;99542.34;5036080;28;20630;-60
2023/10/29 02:11:52;;;;;;;25.63;15.20;;;;;;;8.76;91.92;99542.31;5042590;28;20222;-60
2023/10/29 02:14:20;;;;;;;23.40;15.10;;;;;;;8.72;91.02;99533.81;5050150;28;20716;-71
2023/10/29 02:16:49;;;;;;;25.73;15.30;;;;;;;8.71;91.92;99537.25;5043904;28;20242;-66
2023/10/29 02:19:17;;;;;;;21.37;14.30;;;;;;;8.72;92.16;99538.94;5053772;28;20209;-71
2023/10/29 02:21:45;;;;;;;22.73;15.13;;;;;;;8.73;92.12;99542.34;5044505;28;20660;-73
2023/10/29 02:24:14;;;;;;;21.13;14.00;;;;;;;8.73;92.24;99545.78;5049495;28;20198;-62
2023/10/29 02:26:42;;;;;;;23.63;15.60;;;;;;;8.68;91.68;99550.13;5048770;28;20297;-61
2023/10/29 02:29:10;;;;;;;22.83;14.47;;;;;;;8.67;91.69;99546.72;5040734;28;20252;-61
2023/10/29 02:31:38;;;;;;;21.50;14.67;;;;;;;8.66;92.06;99549.31;5046444;28;20244;-61
2023/10/29 02:34:06;;;;;;;21.80;14.10;;;;;;;8.64;92.05;99557.00;5048848;28;20567;-63
2023/10/29 02:36:34;;;;;;;21.90;13.90;;;;;;;8.60;92.03;99563.06;5051699;28;20611;-64
2023/10/29 02:39:02;;;;;;;20.67;14.10;;;;;;;8.62;92.76;99566.47;5055425;28;20213;-66
2023/10/29 02:41:31;;;;;;;20.67;14.40;;;;;;;8.63;92.20;99567.31;5046935;28;20685;-66
2023/10/29 02:43:59;;;;;;;22.70;14.10;;;;;;;8.64;92.57;99557.00;5054011;28;20198;-68
2023/10/29 02:46:27;;;;;;;22.77;14.30;;;;;;;8.62;92.61;99552.78;5050875;28;20237;-67
2023/10/29 02:48:55;;;;;;;21.07;14.00;;;;;;;8.62;92.88;99556.19;5047633;28;20225;-67
2023/10/29 02:51:23;;;;;;;23.40;14.60;;;;;;;8.59;92.73;99561.34;5050965;28;20205;-67
2023/10/29 02:53:51;;;;;;;23.60;14.27;;;;;;;8.56;92.64;99569.09;5051434;28;20206;-69
2023/10/29 02:56:19;;;;;;;21.83;14.07;;;;;;;8.52;92.99;99566.59;5058550;28;20649;-66
2023/10/29 02:58:48;;;;;;;22.97;14.00;;;;;;;8.45;93.56;99569.22;5049335;28;20201;-67
2023/10/29 03:01:16;;;;;;;25.03;14.87;;;;;;;8.45;94.22;99558.94;5056599;28;20217;-67
2023/10/29 03:03:45;;;;;;;22.83;13.80;;;;;;;8.50;93.72;99565.72;5054735;28;20210;-67
2023/10/29 03:06:13;;;;;;;24.63;14.63;;;;;;;8.50;93.62;99568.31;5054475;28;20202;-68
2023/10/29 03:08:42;;;;;;;23.90;14.77;;;;;;;8.47;94.12;99564.06;5049301;28;20593;-71
2023/10/29 03:11:11;;;;;;;27.47;15.17;;;;;;;8.43;94.01;99558.13;5051647;28;20229;-67
2023/10/29 03:13:39;;;;;;;29.40;15.87;;;;;;;8.44;94.44;99566.66;5052765;28;20213;-67
2023/10/29 03:16:08;;;;;;;26.83;16.30;;;;;;;8.43;94.25;99562.38;5042315;28;20206;-66
2023/10/29 03:18:36;;;;;;;23.33;15.63;;;;;;;8.44;94.10;99574.38;5053929;28;20259;-68
2023/10/29 03:21:04;;;;;;;24.20;15.20;;;;;;;8.41;94.01;99569.25;5051156;28;20536;-69
2023/10/29 03:23:32;;;;;;;26.30;15.80;;;;;;;8.41;94.11;99564.13;5057183;28;20221;-68
2023/10/29 03:26:02;;;;;;;26.77;16.60;;;;;;;8.40;94.25;99567.56;5059549;28;20571;-68
2023/10/29 03:28:30;;;;;;;24.77;14.93;;;;;;;8.41;94.14;99572.69;5051549;28;20202;-68
2023/10/29 03:30:58;;;;;;;27.47;16.23;;;;;;;8.43;94.47;99564.94;5052858;28;20739;-67
2023/10/29 03:33:27;;;;;;;26.33;15.77;;;;;;;8.47;94.61;99564.06;5048953;28;20190;-68
2023/10/29 03:35:55;;;;;;;27.40;15.87;;;;;;;8.44;94.18;99567.50;5047535;28;20673;-65
2023/10/29 03:38:23;;;;;;;29.90;15.70;;;;;;;8.37;94.67;99565.00;5053109;28;20653;-66
2023/10/29 03:40:51;;;;;;;29.97;16.37;;;;;;;8.41;94.84;99564.13;5052692;28;20202;-68
2023/10/29 03:43:18;;;;;;;26.60;15.27;;;;;;;8.45;95.32;99563.22;5063630;28;20225;-64
2023/10/29 03:45:46;;;;;;;28.87;14.73;;;;;;;8.43;94.93;99567.50;5055127;28;20210;-69
2023/10/29 03:48:15;;;;;;;29.23;15.60;;;;;;;8.38;94.81;99577.84;5048528;28;20530;-65
2023/10/29 03:50:45;;;;;;;28.63;15.93;;;;;;;8.40;95.58;99570.13;5055134;28;20262;-66
2023/10/29 03:53:12;;;;;;;31.90;16.83;;;;;;;8.39;95.33;99564.13;5049868;28;20206;-66
2023/10/29 03:55:40;;;;;;;30.13;16.10;;;;;;;8.38;95.76;99554.72;5049736;28;20198;-65
2023/10/29 03:58:08;;;;;;;27.60;15.97;;;;;;;8.40;95.72;99555.59;5056791;28;20301;-65
2023/10/29 04:00:36;;;;;;;27.70;16.10;;;;;;;8.44;95.54;99564.09;5050011;28;20226;-67
2023/10/29 04:03:04;;;;;;;26.37;16.80;;;;;;;8.48;95.57;99568.34;5046690;28;20309;-67
2023/10/29 04:05:35;;;;;;;30.27;15.77;;;;;;;8.49;95.66;99562.31;5048820;28;20741;-68
2023/10/29 04:08:04;;;;;;;25.73;15.33;;;;;;;8.42;95.80;99560.69;5054164;28;20194;-67
2023/10/29 04:10:32;;;;;;;28.27;15.50;;;;;;;8.39;96.23;99555.56;5058532;28;20233;-65
2023/10/29 04:13:00;;;;;;;32.43;14.57;;;;;;;8.30;96.27;99550.53;5050510;28;20210;-65
2023/10/29 04:15:28;;;;;;;29.87;15.50;;;;;;;8.19;97.22;99548.06;5051129;28;20197;-69
2023/10/29 04:17:56;;;;;;;32.63;16.67;;;;;;;8.14;98.02;99537.84;5050748;28;20265;-68
2023/10/29 04:20:24;;;;;;;31.07;15.13;;;;;;;8.11;99.35;99527.59;5060936;28;20725;-66
2023/10/29 04:22:52;;;;;;;32.57;15.80;;;;;;;8.14;99.29;99542.97;5066082;28;20695;-68
2023/10/29 04:25:21;;;;;;;31.43;16.47;;;;;;;8.20;98.93;99540.34;5057409;28;20547;-67
2023/10/29 04:27:49;;;;;;;35.33;17.37;;;;;;;8.26;99.29;99536.03;5051989;28;20210;-67
2023/10/29 04:30:17;;;;;;;32.53;16.23;;;;;;;8.33;98.98;99546.22;5045276;28;20555;-67
2023/10/29 04:32:46;;;;;;;33.87;15.83;;;;;;;8.34;98.44;99557.31;5046246;28;20237;-66
2023/10/29 04:35:14;;;;;;;41.80;16.33;;;;;;;8.32;97.83;99559.03;5048355;28;20707;-65
2023/10/29 04:37:42;;;;;;;32.57;16.10;;;;;;;8.32;98.26;99556.47;5055457;28;20574;-67
2023/10/29 04:40:11;;;;;;;33.87;16.67;;;;;;;8.37;98.92;99552.16;5056367;28;20205;-68
2023/10/29 04:42:40;;;;;;;36.27;17.57;;;;;;;8.42;98.32;99565.81;5052195;28;20814;-67
2023/10/29 04:45:11;;;;;;;34.40;16.47;;;;;;;8.47;98.95;99561.50;5049804;28;20224;-66
2023/10/29 04:47:39;;;;;;;29.73;15.63;;;;;;;8.45;97.84;99558.94;5050651;28;20201;-65
2023/10/29 04:50:08;;;;;;;31.87;15.70;;;;;;;8.48;97.85;99558.06;5048617;28;20289;-67
2023/10/29 04:52:35;;;;;;;37.53;17.23;;;;;;;8.53;98.42;99560.56;5045793;28;20283;-65
2023/10/29 04:55:05;;;;;;;38.07;16.57;;;;;;;8.54;97.67;99559.69;5052596;28;20675;-66
2023/10/29 04:57:33;;;;;;;34.07;15.93;;;;;;;8.55;97.75;99572.53;5047093;28;20225;-65
2023/10/29 05:00:08;;;;;;;35.33;17.20;;;;;;;8.53;97.71;99573.41;5050552;28;20711;-69
2023/10/29 05:02:36;;;;;;;36.53;17.27;;;;;;;8.57;97.92;99569.94;5049272;28;20214;-62
2023/10/29 05:05:06;;;;;;;33.97;16.27;;;;;;;8.55;98.24;99566.56;5052392;28;20206;-63
2023/10/29 05:07:35;;;;;;;36.57;15.10;;;;;;;8.52;98.18;99572.56;5056370;28;20205;-65
2023/10/29 05:10:03;;;;;;;39.57;17.23;;;;;;;8.50;98.70;99569.16;5045738;28;20283;-60
2023/10/29 05:12:31;;;;;;;41.37;17.70;;;;;;;8.47;98.71;99569.22;5049968;28;20260;-59
2023/10/29 05:14:59;;;;;;;40.17;17.83;;;;;;;8.42;99.12;99561.53;5049244;28;20237;-63
2023/10/29 05:17:29;;;;;;;43.30;18.07;;;;;;;8.48;99.76;99565.75;5040701;28;20791;-60
2023/10/29 05:19:57;;;;;;;42.63;17.27;;;;;;;8.46;99.14;99568.31;5048472;28;20696;-65
2023/10/29 05:22:25;;;;;;;36.97;17.20;;;;;;;8.44;99.63;99572.66;5054481;28;20201;-59
2023/10/29 05:24:53;;;;;;;42.13;19.40;;;;;;;8.48;99.89;99576.03;5056634;28;20206;-59
2023/10/29 05:27:21;;;;;;;36.90;18.03;;;;;;;8.53;100.00;99573.41;5049010;28;20202;-61
2023/10/29 05:29:49;;;;;;;38.60;17.53;;;;;;;8.59;99.78;99579.34;5047633;28;20212;-62
2023/10/29 05:32:17;;;;;;;46.80;18.03;;;;;;;8.54;99.66;99572.53;5044476;28;20296;-61
2023/10/29 05:34:46;;;;;;;39.73;17.83;;;;;;;8.50;99.86;99571.72;5052308;28;20647;-60
2023/10/29 05:37:14;;;;;;;39.40;18.03;;;;;;;8.55;100.00;99587.09;5051900;28;20202;-60
2023/10/29 05:39:42;;;;;;;44.13;18.87;;;;;;;8.61;100.00;99595.56;5044605;28;20210;-62
2023/10/29 05:42:10;;;;;;;41.27;18.00;;;;;;;8.68;100.00;99591.22;5046601;28;20228;-66
2023/10/29 05:44:38;;;;;;;37.07;17.83;;;;;;;8.76;100.00;99588.56;5048900;28;20214;-70
2023/10/29 05:47:06;;;;;;;40.00;18.40;;;;;;;8.79;99.72;99591.09;5049382;28;20267;-68
2023/10/29 05:49:34;;;;;;;41.17;19.77;;;;;;;8.84;100.00;99600.47;5053171;28;20312;-68
2023/10/29 05:52:03;;;;;;;37.27;17.83;;;;;;;8.88;99.82;99607.25;5054489;28;20293;-69
2023/10/29 05:54:31;;;;;;;37.10;17.40;;;;;;;8.98;99.73;99615.69;5060749;28;20218;-69
2023/10/29 05:56:59;;;;;;;31.60;16.57;;;;;;;9.05;99.64;99612.19;5050255;28;20209;-68
2023/10/29 05:59:28;;;;;;;35.73;17.43;;;;;;;9.09;98.94;99610.41;5044805;28;20546;-71
2023/10/29 06:01:56;;;;;;;37.37;17.63;;;;;;;9.14;98.18;99618.94;5045608;28;20668;-65
2023/10/29 06:04:24;;;;;;;29.93;15.83;;;;;;;9.17;98.35;99630.03;5045193;28;20257;-65
2023/10/29 06:06:52;;;;;;;34.50;17.70;;;;;;;9.23;97.94;99625.69;5054742;28;20201;-68
2023/10/29 06:09:21;;;;;;;33.50;16.37;;;;;;;9.22;97.42;99624.00;5055620;28;20732;-70
2023/10/29 06:11:52;;;;;;;33.67;16.63;;;;;;;9.22;97.55;99624.84;5050520;28;20209;-73
2023/10/29 06:14:22;;;;;;;33.27;16.30;;;;;;;9.23;97.13;99612.81;5046393;28;20220;-73
2023/10/29 06:16:55;;;;;;;34.97;16.47;;;;;;;9.22;97.22;99626.56;5050032;28;20656;-72
2023/10/29 06:19:35;;;;;;;32.80;16.07;;;;;;;9.25;97.33;99641.94;5057109;28;20241;-71
2023/10/29 06:22:05;;;;;;;32.13;16.90;;;;;;;9.30;97.58;99645.28;5058572;28;20229;-66
2023/10/29 06:24:34;;;;;;;30.97;15.87;;;;;;;9.38;97.40;99643.47;5051815;28;20274;-68
2023/10/29 06:27:03;;;;;;;33.47;16.03;;;;;;;9.43;97.14;99646.84;5057472;28;20214;-62
2023/10/29 06:29:31;;;;;;;26.80;14.93;;;;;;;9.49;97.00;99645.91;5049014;28;20237;-60
2023/10/29 06:31:59;;;;;;;25.50;14.33;;;;;;;9.49;96.40;99638.19;5052960;28;20695;-60
2023/10/29 06:34:27;;;;;;;28.93;15.53;;;;;;;9.56;96.29;99648.38;5056772;28;20265;-68
2023/10/29 06:36:55;;;;;;;28.57;15.43;;;;;;;9.53;95.44;99638.13;5054562;28;20676;-69
2023/10/29 06:39:23;;;;;;;30.03;15.77;;;;;;;9.55;95.58;99646.66;5052789;28;20263;-66
2023/10/29 06:41:52;;;;;;;30.77;16.17;;;;;;;9.59;96.01;99648.31;5049267;28;20202;-69
2023/10/29 06:44:20;;;;;;;30.63;16.20;;;;;;;9.67;96.02;99655.94;5054306;28;20218;-60
2023/10/29 06:46:48;;;;;;;26.07;14.83;;;;;;;9.68;95.32;99647.34;5043597;28;20237;-60
2023/10/29 06:49:16;;;;;;;30.87;15.90;;;;;;;9.71;95.44;99652.44;5050782;28;20501;-61
2023/10/29 06:51:44;;;;;;;30.17;15.43;;;;;;;9.75;95.30;99648.09;5056978;28;20684;-62
2023/10/29 06:54:13;;;;;;;29.37;15.30;;;;;;;9.78;95.40;99640.34;5053541;28;20202;-62
2023/10/29 06:56:41;;;;;;;28.07;15.50;;;;;;;9.85;95.15;99639.38;5057165;28;20217;-69
2023/10/29 06:59:10;;;;;;;26.20;15.33;;;;;;;9.92;94.93;99643.56;5047932;28;20209;-66
2023/10/29 07:01:38;;;;;;;26.73;15.47;;;;;;;9.97;94.89;99628.88;5052208;28;20198;-68
2023/10/29 07:04:08;;;;;;;27.70;15.80;;;;;;;10.04;94.40;99627.91;5048119;28;20241;-73
2023/10/29 07:06:36;;;;;;;25.87;14.73;;;;;;;10.14;93.99;99626.91;5051679;28;20714;-69
2023/10/29 07:09:04;;;;;;;24.00;14.90;;;;;;;10.24;93.89;99621.63;5062299;28;20232;-75
2023/10/29 07:11:32;;;;;;;25.47;15.20;;;;;;;10.33;93.24;99612.03;5051776;28;20202;-73
2023/10/29 07:14:00;;;;;;;22.37;13.50;;;;;;;10.40;91.72;99600.72;5056314;28;20200;-74
2023/10/29 07:16:29;;;;;;;27.10;14.33;;;;;;;10.45;91.14;99602.38;5053441;28;20234;-71
2023/10/29 07:18:57;;;;;;;23.73;14.30;;;;;;;10.48;91.01;99608.31;5052864;28;20206;-74
2023/10/29 07:21:26;;;;;;;23.97;13.43;;;;;;;10.59;91.07;99608.13;5047879;28;20233;-61
2023/10/29 07:23:57;;;;;;;20.93;13.00;;;;;;;10.75;90.78;99608.69;5051485;28;20580;-65
2023/10/29 07:26:25;;;;;;;24.17;13.17;;;;;;;10.90;90.21;99613.56;5059650;28;20206;-64
2023/10/29 07:28:53;;;;;;;25.57;13.37;;;;;;;11.05;89.56;99618.41;5048879;28;20194;-70
2023/10/29 07:31:21;;;;;;;25.93;15.23;;;;;;;11.24;88.79;99624.03;5048222;28;20676;-67
2023/10/29 07:33:51;;;;;;;21.23;13.40;;;;;;;11.44;88.08;99620.16;5049960;28;20661;-64
2023/10/29 07:36:20;;;;;;;21.47;12.60;;;;;;;11.58;86.85;99629.28;5038838;28;20203;-61
2023/10/29 07:38:48;;;;;;;20.60;12.83;;;;;;;11.61;84.74;99615.47;5056091;28;20212;-62
2023/10/29 07:41:19;;;;;;;22.70;13.83;;;;;;;11.62;85.36;99614.59;5052735;28;20697;-61
2023/10/29 07:43:47;;;;;;;20.07;13.03;;;;;;;11.63;85.22;99605.94;5049546;28;20224;-61
2023/10/29 07:46:15;;;;;;;19.30;12.13;;;;;;;11.66;84.74;99599.88;5052479;28;20206;-62
2023/10/29 07:48:43;;;;;;;19.13;12.63;;;;;;;11.70;84.68;99591.19;5055225;28;20209;-62
2023/10/29 07:51:13;;;;;;;19.97;11.90;;;;;;;11.81;84.89;99595.19;5051233;28;20208;-66
2023/10/29 07:53:41;;;;;;;15.23;11.03;;;;;;;11.92;84.32;99594.97;5051008;28;20232;-62
2023/10/29 07:56:10;;;;;;;14.57;10.97;;;;;;;12.02;83.58;99587.88;5051389;28;20201;-63
2023/10/29 07:58:38;;;;;;;13.43;10.67;;;;;;;12.08;83.65;99591.16;5051712;28;20860;-62
2023/10/29 08:01:11;;;;;;;14.97;10.30;;;;;;;12.09;82.69;99590.25;5050312;28;20205;-63
2023/10/29 08:03:39;;;;;;;15.50;9.83;;;;;;;12.17;83.07;99591.81;5055105;28;20628;-67
2023/10/29 08:06:08;;;;;;;12.87;9.77;;;;;;;12.25;82.59;99589.84;5053413;28;20658;-63
2023/10/29 08:08:37;;;;;;;12.67;8.67;;;;;;;12.26;81.68;99581.22;5058808;28;20213;-62
2023/10/29 08:11:05;;;;;;;11.37;8.20;;;;;;;12.23;81.72;99577.00;5050809;28;20213;-65
2023/10/29 08:13:33;;;;;;;11.53;7.67;;;;;;;12.24;81.72;99578.69;5047378;28;20229;-63
2023/10/29 08:16:04;;;;;;;10.87;7.33;;;;;;;12.18;80.98;99580.56;5046349;28;20644;-61
2023/10/29 08:18:31;;;;;;;11.07;7.33;;;;;;;12.11;80.88;99579.03;5048474;28;20236;-62
2023/10/29 08:21:00;;;;;;;10.43;7.03;;;;;;;12.05;81.46;99588.63;5049220;28;20599;-62
2023/10/29 08:23:30;;;;;;;12.63;6.33;;;;;;;12.00;81.89;99580.16;5050242;28;20595;-63
2023/10/29 08:25:59;;;;;;;8.57;6.67;;;;;;;11.97;81.48;99580.25;5054711;28;20276;-61
2023/10/29 08:28:27;;;;;;;8.03;6.20;;;;;;;11.97;82.08;99584.56;5052979;28;20704;-60
2023/10/29 08:30:55;;;;;;;9.43;5.97;;;;;;;11.95;82.09;99589.75;5051716;28;20305;-62
2023/10/29 08:33:23;;;;;;;8.87;5.97;;;;;;;11.98;82.38;99594.00;5048767;28;20683;-62
2023/10/29 08:35:51;;;;;;;8.87;6.20;;;;;;;11.99;81.99;99588.78;5049338;28;20657;-64
2023/10/29 08:38:20;;;;;;;11.43;6.20;;;;;;;11.99;81.69;99588.78;5051357;28;20657;-62
2023/10/29 08:40:48;;;;;;;7.90;5.77;;;;;;;12.01;81.83;99586.19;5053446;28;20213;-62
2023/10/29 08:43:18;;;;;;;9.07;6.60;;;;;;;11.95;82.27;99587.16;5056099;28;20206;-62
2023/10/29 08:45:46;;;;;;;7.70;6.13;;;;;;;12.06;82.57;99592.91;5054315;28;20654;-64
2023/10/29 08:48:14;;;;;;;7.93;6.00;;;;;;;12.15;81.91;99594.44;5056555;28;20206;-62
2023/10/29 08:50:42;;;;;;;10.57;6.23;;;;;;;12.22;81.69;99597.69;5044661;28;20263;-63
2023/10/29 08:53:10;;;;;;;9.43;5.73;;;;;;;12.30;81.82;99600.94;5055638;28;20626;-61
2023/10/29 08:55:38;;;;;;;7.90;5.77;;;;;;;12.34;80.41;99605.13;5047514;28;20285;-63
2023/10/29 08:58:06;;;;;;;7.20;5.40;;;;;;;12.39;80.88;99597.25;5048299;28;20240;-61
2023/10/29 09:00:35;;;;;;;7.63;5.37;;;;;;;12.47;81.21;99601.34;5052657;28;20206;-63
2023/10/29 09:03:13;;;;;;;7.10;5.40;;;;;;;12.57;81.02;99605.38;5057717;28;20231;-69
2023/10/29 09:05:41;;;;;;;7.60;5.77;;;;;;;12.66;80.34;99604.25;5047965;28;20580;-70
2023/10/29 09:08:10;;;;;;;8.23;6.07;;;;;;;12.73;79.84;99597.19;5051482;28;20317;-70
2023/10/29 09:10:42;;;;;;;7.20;5.17;;;;;;;12.81;79.28;99590.06;5053666;28;20202;-70
2023/10/29 09:13:11;;;;;;;7.30;5.23;;;;;;;12.89;79.24;99582.97;5051371;28;20206;-69
2023/10/29 09:15:41;;;;;;;8.13;5.00;;;;;;;12.92;78.43;99585.44;5050231;28;20204;-68
2023/10/29 09:18:09;;;;;;;8.40;5.20;;;;;;;12.93;78.12;99584.56;5039425;28;20765;-66
2023/10/29 09:20:38;;;;;;;7.10;4.90;;;;;;;12.97;77.95;99585.34;5061667;28;20197;-69
2023/10/29 09:23:06;;;;;;;6.13;4.53;;;;;;;13.01;78.33;99585.19;5046105;28;20566;-66
2023/10/29 09:25:34;;;;;;;6.67;5.17;;;;;;;13.08;78.48;99587.59;5047742;28;20222;-70
2023/10/29 09:28:04;;;;;;;10.83;5.27;;;;;;;13.13;77.79;99585.72;5056080;28;20201;-70
2023/10/29 09:30:33;;;;;;;7.17;4.83;;;;;;;13.19;77.30;99586.41;5036906;28;20212;-69
2023/10/29 09:33:02;;;;;;;8.03;5.30;;;;;;;13.25;76.60;99585.38;5034786;28;20206;-65
2023/10/29 09:35:30;;;;;;;6.20;4.63;;;;;;;13.36;76.97;99587.66;5045824;28;20210;-66
2023/10/29 09:37:59;;;;;;;7.20;4.40;;;;;;;13.43;76.45;99574.47;5046825;28;20715;-65
2023/10/29 09:40:27;;;;;;;5.43;4.10;;;;;;;13.54;76.27;99584.50;5044426;28;20645;-64
2023/10/29 09:42:56;;;;;;;8.30;4.63;;;;;;;13.63;75.72;99576.47;5048723;28;20208;-64
2023/10/29 09:45:26;;;;;;;6.50;4.90;;;;;;;13.72;74.59;99576.16;5046696;28;20249;-63
2023/10/29 09:47:55;;;;;;;6.40;4.23;;;;;;;13.81;74.98;99564.69;5045112;28;20221;-62
2023/10/29 09:50:24;;;;;;;6.50;4.23;;;;;;;13.85;73.68;99574.03;5051397;28;20205;-62
2023/10/29 09:52:54;;;;;;;5.57;4.03;;;;;;;13.84;72.86;99564.56;5047816;28;20255;-63
2023/10/29 09:55:23;;;;;;;7.17;4.43;;;;;;;13.83;72.54;99562.88;5048071;28;20251;-62
2023/10/29 09:57:51;;;;;;;7.00;4.90;;;;;;;13.82;72.50;99557.75;5055498;28;20206;-63
2023/10/29 10:00:19;;;;;;;6.00;3.87;;;;;;;13.84;72.50;99551.59;5049460;28;20229;-61
2023/10/29 10:02:51;;;;;;;6.33;4.03;;;;;;;13.86;72.27;99562.78;5044086;28;20210;-61
2023/10/29 10:05:21;;;;;;;7.93;4.17;;;;;;;13.87;72.89;99564.47;5044768;28;20214;-64
2023/10/29 10:07:51;;;;;;;6.00;4.33;;;;;;;13.91;72.92;99558.28;5051105;28;20201;-64
2023/10/29 10:10:20;;;;;;;5.80;3.90;;;;;;;13.95;73.19;99562.44;5046774;28;20649;-62
2023/10/29 10:12:50;;;;;;;6.57;4.60;;;;;;;13.96;71.93;99552.97;5047626;28;20198;-62
2023/10/29 10:15:19;;;;;;;6.63;4.63;;;;;;;13.88;72.06;99545.44;5044922;28;22239;-62
2023/10/29 10:17:48;;;;;;;4.87;4.10;;;;;;;13.81;72.14;99543.09;5045791;28;20633;-62
2023/10/29 10:20:22;;;;;;;6.20;4.47;;;;;;;13.73;72.74;99553.69;5048634;28;20233;-62
2023/10/29 10:22:58;;;;;;;7.07;4.50;;;;;;;13.67;73.54;99549.56;5054129;28;20213;-64
2023/10/29 10:25:27;;;;;;;7.27;4.47;;;;;;;13.66;73.68;99552.19;5052426;28;20257;-63
2023/10/29 10:27:57;;;;;;;7.17;4.47;;;;;;;13.64;74.74;99544.50;5047958;28;20205;-60
2023/10/29 10:30:30;;;;;;;5.90;4.63;;;;;;;13.64;74.64;99546.25;5049178;28;20205;-61
2023/10/29 10:33:12;;;;;;;7.10;4.90;;;;;;;13.63;75.44;99544.56;5050293;28;20205;-61
2023/10/29 10:35:45;;;;;;;6.23;4.30;;;;;;;13.64;75.40;99535.88;5047278;28;20206;-61
2023/10/29 10:38:16;;;;;;;10.63;4.50;;;;;;;13.62;75.52;99532.50;5045681;28;20753;-63
2023/10/29 10:40:44;;;;;;;6.00;4.07;;;;;;;13.63;75.32;99526.44;5048192;28;20683;-61
2023/10/29 10:43:19;;;;;;;6.77;4.20;;;;;;;13.63;75.90;99529.03;5049488;28;20205;-61
2023/10/29 10:45:50;;;;;;;7.90;4.37;;;;;;;13.61;75.02;99520.44;5046987;28;20217;-60
2023/10/29 10:48:19;;;;;;;6.07;3.73;;;;;;;13.60;75.12;99516.19;5057184;28;20202;-61
2023/10/29 10:50:47;;;;;;;5.93;3.60;;;;;;;13.56;75.36;99509.41;5051847;28;20283;-63
2023/10/29 10:53:17;;;;;;;5.80;3.47;;;;;;;13.57;75.07;99514.53;5050190;28;20252;-70
2023/10/29 10:55:47;;;;;;;4.03;3.13;;;;;;;13.56;73.26;99502.47;5054399;28;20206;-67
2023/10/29 10:58:30;;;;;;;5.10;3.00;;;;;;;13.58;72.35;99521.38;5046578;28;20201;-69
2023/10/29 11:00:59;;;;;;;4.17;2.80;;;;;;;13.58;72.43;99510.19;5050622;28;20229;-70
2023/10/29 11:03:30;;;;;;;6.43;2.57;;;;;;;13.60;72.14;99513.59;5057775;28;20653;-68
2023/10/29 11:06:00;;;;;;;4.63;3.17;;;;;;;13.64;71.89;99515.19;5049393;28;20214;-63
2023/10/29 11:08:30;;;;;;;5.03;3.33;;;;;;;13.65;71.95;99506.50;5045405;28;20212;-70
2023/10/29 11:11:00;;;;;;;3.57;2.53;;;;;;;13.70;72.03;99502.88;5047208;28;20217;-72
2023/10/29 11:13:28;;;;;;;3.87;2.83;;;;;;;13.78;71.15;99512.97;5049986;28;20206;-74
2023/10/29 11:15:56;;;;;;;4.73;2.80;;;;;;;13.84;71.11;99505.00;5056599;28;20204;-71
2023/10/29 11:18:29;;;;;;;5.63;3.17;;;;;;;13.88;71.11;99493.66;5058826;28;20233;-72
2023/10/29 11:21:00;;;;;;;4.00;3.00;;;;;;;13.93;70.91;99490.91;5054066;28;20212;-70
2023/10/29 11:23:30;;;;;;;4.87;2.77;;;;;;;13.96;70.43;99481.28;5058040;28;20202;-72
2023/10/29 11:26:31;;;;;;;5.23;2.60;;;;;;;14.02;70.58;99482.81;5045700;28;20218;-69
2023/10/29 11:28:59;;;;;;;3.00;2.43;;;;;;;14.08;70.04;99479.16;5052166;28;20619;-69
2023/10/29 11:31:27;;;;;;;6.20;3.30;;;;;;;14.12;69.48;99478.16;5047982;28;20292;-69
2023/10/29 11:34:34;;;;;;;3.37;2.33;;;;;;;14.17;69.53;99473.66;5054563;28;20648;-70